Back to Top

Language: 

My Weather Underground Personal Weather Station Historical Data with Graphs...

Delerius Weather Station Historical Data
Daily Summary for April 9, 2017 Units:  Metric    English   Both
« Previous Day
Next Day »
Daily Weekly Monthly Yearly Custom
  High: Low: Average:
Temperature: 22.6 °C 5.6 °C 13.4 °C
Dew Point: 12.3 °C 3.9 °C 7.9 °C
Humidity: 92 % 43 % 71 %
Wind Speed: 30.6 km/h 0 km/h 11.9 km/h
Wind Gust: 51.5 km/h - -
Wind:- - WSW
Pressure: 1019.5 hPa 1014.8 hPa -
Precipitation: 0 mm    
Historical Graphs
 
 
Tabular Data for April 9, 2017
Time Temperature Dew Point Pressure Wind Wind Speed Wind Gust Humidity Rainfall Rate (Hourly) solar Conditions
00:04 8.8 °C 5.3 °C 1019.5 hPa SW 1.6 km/h 8 km/h 79 % 0 mm 0 W/m2
00:09 8.7 °C 5.3 °C 1019.5 hPa SW 1.6 km/h 8 km/h 79 % 0 mm 0 W/m2
00:14 8.8 °C 5.6 °C 1019.5 hPa Calm   6.4 km/h 80 % 0 mm 0 W/m2
00:19 9.3 °C 5.8 °C 1019.5 hPa Calm   8 km/h 79 % 0 mm 0 W/m2
00:24 9.3 °C 5.4 °C 1019.5 hPa Calm   8 km/h 77 % 0 mm 0 W/m2
00:29 9.2 °C 5.6 °C 1019.5 hPa Calm   6.4 km/h 78 % 0 mm 0 W/m2
00:34 9 °C 5.4 °C 1019.5 hPa Calm   6.4 km/h 78 % 0 mm 0 W/m2
00:39 8.9 °C 5.4 °C 1019.5 hPa Calm   6.4 km/h 79 % 0 mm 0 W/m2
00:45 9 °C 5.7 °C 1019.5 hPa Calm   8 km/h 80 % 0 mm 0 W/m2
00:50 9 °C 5.6 °C 1019.5 hPa Calm   8 km/h 79 % 0 mm 0 W/m2
00:55 8.8 °C 5.2 °C 1019.5 hPa Calm   8 km/h 78 % 0 mm 0 W/m2
01:00 8.6 °C 5.2 °C 1019.5 hPa SSW 1.6 km/h 8 km/h 79 % 0 mm 0 W/m2
01:05 8.4 °C 5.2 °C 1019.5 hPa Calm   8 km/h 80 % 0 mm 0 W/m2
01:10 8.3 °C 5.2 °C 1019.5 hPa Calm   3.2 km/h 81 % 0 mm 0 W/m2
01:15 8.3 °C 5.4 °C 1019.5 hPa Calm   4.8 km/h 82 % 0 mm 0 W/m2
01:20 8.3 °C 5.4 °C 1019.5 hPa South 1.6 km/h 9.7 km/h 82 % 0 mm 0 W/m2
01:25 8.4 °C 5.5 °C 1019.5 hPa SSW 1.6 km/h 9.7 km/h 82 % 0 mm 0 W/m2
01:30 8.6 °C 5.9 °C 1019.5 hPa SSE 1.6 km/h 9.7 km/h 83 % 0 mm 0 W/m2
01:35 8.8 °C 6.1 °C 1019.5 hPa SSE 1.6 km/h 9.7 km/h 83 % 0 mm 0 W/m2
01:40 9.2 °C 6.6 °C 1019.2 hPa South 3.2 km/h 9.7 km/h 84 % 0 mm 0 W/m2
01:45 9.4 °C 6.5 °C 1019.2 hPa South 1.6 km/h 8 km/h 82 % 0 mm 0 W/m2
01:50 9.5 °C 6.4 °C 1019.2 hPa Calm   4.8 km/h 81 % 0 mm 0 W/m2
01:55 9.4 °C 6.3 °C 1019.2 hPa Calm   3.2 km/h 81 % 0 mm 0 W/m2
02:00 9.5 °C 6.6 °C 1019.2 hPa Calm   3.2 km/h 82 % 0 mm 0 W/m2
02:05 9.6 °C 6.7 °C 1019.2 hPa Calm   1.6 km/h 82 % 0 mm 0 W/m2
02:10 9.7 °C 6.8 °C 1019.2 hPa Calm   4.8 km/h 82 % 0 mm 0 W/m2
02:15 9.8 °C 6.9 °C 1019.2 hPa SE 1.6 km/h 6.4 km/h 82 % 0 mm 0 W/m2
02:20 10 °C 6.9 °C 1019.2 hPa SE 1.6 km/h 6.4 km/h 81 % 0 mm 0 W/m2
02:25 10.1 °C 7 °C 1019.2 hPa Calm   4.8 km/h 81 % 0 mm 0 W/m2
02:30 10.2 °C 6.9 °C 1019.2 hPa Calm   3.2 km/h 80 % 0 mm 0 W/m2
02:35 10.1 °C 6.8 °C 1019.2 hPa Calm   3.2 km/h 80 % 0 mm 0 W/m2
02:40 10 °C 6.9 °C 1019.2 hPa Calm   4.8 km/h 81 % 0 mm 0 W/m2
02:45 9.9 °C 6.8 °C 1019.2 hPa SE 1.6 km/h 4.8 km/h 81 % 0 mm 0 W/m2
02:50 9.9 °C 6.9 °C 1019.2 hPa SE 1.6 km/h 6.4 km/h 82 % 0 mm 0 W/m2
02:55 9.8 °C 6.9 °C 1019.2 hPa SE 1.6 km/h 6.4 km/h 82 % 0 mm 0 W/m2
03:05 9.3 °C 5.8 °C 1019.2 hPa Calm   4.8 km/h 79 % 0 mm 0 W/m2
03:10 8.8 °C 5.6 °C 1019.2 hPa Calm   3.2 km/h 80 % 0 mm 0 W/m2
03:15 8.4 °C 5.3 °C 1019.2 hPa Calm   6.4 km/h 81 % 0 mm 0 W/m2
03:17 8.3 °C 5.2 °C 1019.2 hPa Calm   6.4 km/h 81 % 0 mm 0 W/m2
03:22 8.1 °C 5.4 °C 1018.8 hPa Calm   1.6 km/h 83 % 0 mm 0 W/m2
03:27 7.9 °C 5.4 °C 1018.8 hPa Calm   1.6 km/h 84 % 0 mm 0 W/m2
03:32 7.8 °C 5.4 °C 1019.2 hPa Calm     85 % 0 mm 0 W/m2
03:37 7.7 °C 5.5 °C 1019.2 hPa Calm   1.6 km/h 86 % 0 mm 0 W/m2
03:42 7.7 °C 5.5 °C 1018.8 hPa Calm   1.6 km/h 86 % 0 mm 0 W/m2
03:47 7.5 °C 5.2 °C 1018.8 hPa Calm   3.2 km/h 85 % 0 mm 0 W/m2
03:52 7.3 °C 5.1 °C 1018.8 hPa Calm   3.2 km/h 86 % 0 mm 0 W/m2
03:57 7.2 °C 5 °C 1018.8 hPa Calm   1.6 km/h 86 % 0 mm 0 W/m2
04:02 7.2 °C 5.2 °C 1018.8 hPa Calm   1.6 km/h 87 % 0 mm 0 W/m2
04:07 7.3 °C 5.4 °C 1018.8 hPa Calm   1.6 km/h 88 % 0 mm 0 W/m2
04:12 7.3 °C 5.4 °C 1018.8 hPa Calm   1.6 km/h 88 % 0 mm 0 W/m2
04:17 7.3 °C 5.4 °C 1018.8 hPa Calm   1.6 km/h 88 % 0 mm 0 W/m2
04:22 7.2 °C 5.2 °C 1018.5 hPa Calm   1.6 km/h 87 % 0 mm 0 W/m2
04:27 7.3 °C 5.6 °C 1018.5 hPa Calm   1.6 km/h 89 % 0 mm 0 W/m2
04:32 7.2 °C 5.3 °C 1018.8 hPa Calm   1.6 km/h 88 % 0 mm 0 W/m2
04:38 7.3 °C 5.6 °C 1018.5 hPa Calm     89 % 0 mm 0 W/m2
04:43 7.1 °C 5.2 °C 1018.5 hPa Calm     88 % 0 mm 0 W/m2
04:48 6.8 °C 4.6 °C 1018.5 hPa Calm   1.6 km/h 86 % 0 mm 0 W/m2
04:53 6.6 °C 4.4 °C 1018.5 hPa Calm   1.6 km/h 86 % 0 mm 0 W/m2
04:58 6.5 °C 4.5 °C 1018.5 hPa Calm   3.2 km/h 87 % 0 mm 0 W/m2
05:03 6.4 °C 4.6 °C 1018.5 hPa Calm   3.2 km/h 88 % 0 mm 0 W/m2
05:08 6.4 °C 4.6 °C 1018.5 hPa Calm   3.2 km/h 88 % 0 mm 0 W/m2
05:13 6.3 °C 4.4 °C 1018.5 hPa Calm   3.2 km/h 88 % 0 mm 0 W/m2
05:18 6.2 °C 4.3 °C 1018.5 hPa Calm     88 % 0 mm 0 W/m2
05:23 6.2 °C 4.5 °C 1018.5 hPa Calm     89 % 0 mm 0 W/m2
05:28 6.1 °C 4.4 °C 1018.5 hPa Calm   4.8 km/h 89 % 0 mm 0 W/m2
05:33 6.1 °C 4.4 °C 1018.5 hPa Calm   8 km/h 89 % 0 mm 0 W/m2
05:38 6 °C 4.3 °C 1018.5 hPa Calm   8 km/h 89 % 0 mm 0 W/m2
05:43 5.9 °C 4.4 °C 1018.5 hPa Calm   3.2 km/h 90 % 0 mm 0 W/m2
05:48 6.3 °C 4.9 °C 1018.5 hPa Calm   3.2 km/h 91 % 0 mm 0 W/m2
05:53 6.4 °C 4.9 °C 1018.5 hPa Calm   3.2 km/h 90 % 0 mm 0 W/m2
05:58 6.3 °C 4.6 °C 1018.5 hPa Calm     89 % 0 mm 0 W/m2
06:03 6.1 °C 4.4 °C 1018.5 hPa Calm   3.2 km/h 89 % 0 mm 0 W/m2
06:13 6.1 °C 4.4 °C 1018.5 hPa Calm   3.2 km/h 89 % 0 mm 0 W/m2
06:18 5.9 °C 4.2 °C 1018.5 hPa Calm   8 km/h 89 % 0 mm 5 W/m2
06:28 5.7 °C 4 °C 1018.5 hPa Calm   3.2 km/h 89 % 0 mm 7 W/m2
06:29 5.6 °C 3.9 °C 1018.5 hPa Calm   3.2 km/h 89 % 0 mm 9 W/m2
06:34 5.7 °C 4.3 °C 1018.5 hPa Calm   3.2 km/h 91 % 0 mm 11 W/m2
06:39 5.7 °C 4.2 °C 1018.5 hPa Calm   3.2 km/h 90 % 0 mm 14 W/m2
06:45 5.7 °C 4.2 °C 1018.5 hPa Calm   1.6 km/h 90 % 0 mm 16 W/m2
06:50 5.9 °C 4.7 °C 1018.5 hPa North 1.6 km/h 8 km/h 92 % 0 mm 18 W/m2
06:55 6.3 °C 5.1 °C 1018.5 hPa ENE 3.2 km/h 8 km/h 92 % 0 mm 21 W/m2
07:00 6.6 °C 5.4 °C 1018.5 hPa East 3.2 km/h 8 km/h 92 % 0 mm 32 W/m2
07:05 6.8 °C 5.4 °C 1018.5 hPa East 1.6 km/h 8 km/h 91 % 0 mm 39 W/m2
07:10 7.1 °C 5.7 °C 1018.5 hPa East 3.2 km/h 8 km/h 91 % 0 mm 37 W/m2
07:15 7.3 °C 5.9 °C 1018.5 hPa East 1.6 km/h 8 km/h 91 % 0 mm 44 W/m2
07:20 7.5 °C 5.9 °C 1018.5 hPa Calm   3.2 km/h 90 % 0 mm 32 W/m2
07:25 7.3 °C 5.3 °C 1018.5 hPa Calm     87 % 0 mm 33 W/m2
07:30 7.1 °C 5.2 °C 1018.5 hPa Calm   3.2 km/h 88 % 0 mm 35 W/m2
07:35 7.2 °C 5.3 °C 1018.5 hPa Calm   6.4 km/h 88 % 0 mm 37 W/m2
07:40 7.2 °C 5.3 °C 1018.5 hPa East 1.6 km/h 6.4 km/h 88 % 0 mm 100 W/m2
07:45 7.3 °C 5.6 °C 1018.5 hPa East 1.6 km/h 6.4 km/h 89 % 0 mm 109 W/m2
07:50 7.7 °C 6.2 °C 1018.5 hPa Calm   3.2 km/h 90 % 0 mm 42 W/m2
07:55 8.3 °C 6.8 °C 1018.5 hPa Calm   6.4 km/h 90 % 0 mm 72 W/m2
08:05 9.3 °C 7.4 °C 1018.5 hPa Calm   3.2 km/h 88 % 0 mm 206 W/m2
08:10 10 °C 7.9 °C 1018.5 hPa Calm   3.2 km/h 87 % 0 mm 220 W/m2
08:15 10.7 °C 8.3 °C 1018.5 hPa Calm   1.6 km/h 85 % 0 mm 237 W/m2
08:25 12.1 °C 8.6 °C 1018.5 hPa Calm   6.4 km/h 79 % 0 mm 265 W/m2
08:30 12.6 °C 8.5 °C 1018.2 hPa Calm   4.8 km/h 76 % 0 mm 278 W/m2
08:35 13.1 °C 8.9 °C 1018.2 hPa SSW 1.6 km/h 6.4 km/h 76 % 0 mm 294 W/m2
08:40 13.5 °C 8.8 °C 1018.5 hPa SSW 1.6 km/h 6.4 km/h 73 % 0 mm 304 W/m2
08:45 13.9 °C 9.1 °C 1018.2 hPa SSW 1.6 km/h 6.4 km/h 73 % 0 mm 318 W/m2
08:50 14.4 °C 9.2 °C 1018.2 hPa Calm   3.2 km/h 71 % 0 mm 329 W/m2
08:55 15.1 °C 9.4 °C 1018.2 hPa Calm   1.6 km/h 69 % 0 mm 348 W/m2
09:00 15.4 °C 9.3 °C 1018.2 hPa Calm   1.6 km/h 67 % 0 mm 360 W/m2
09:05 15.8 °C 9.4 °C 1018.2 hPa SSW 1.6 km/h 6.4 km/h 66 % 0 mm 374 W/m2
09:10 15.9 °C 9.3 °C 1018.2 hPa SSW 3.2 km/h 8 km/h 65 % 0 mm 385 W/m2
09:16 15.9 °C 9.6 °C 1018.2 hPa SSW 4.8 km/h 9.7 km/h 66 % 0 mm 401 W/m2
09:21 16 °C 9.7 °C 1017.8 hPa SSW 6.4 km/h 11.3 km/h 66 % 0 mm 418 W/m2
09:31 16.2 °C 9.6 °C 1017.8 hPa South 8 km/h 17.7 km/h 65 % 0 mm 439 W/m2
09:36 16.5 °C 9.7 °C 1017.8 hPa South 6.4 km/h 16.1 km/h 64 % 0 mm 457 W/m2
09:41 16.6 °C 9.5 °C 1017.8 hPa SSE 6.4 km/h 12.9 km/h 63 % 0 mm 466 W/m2
09:46 16.8 °C 9.7 °C 1017.8 hPa South 6.4 km/h 14.5 km/h 63 % 0 mm 476 W/m2
09:51 16.9 °C 9.8 °C 1017.8 hPa South 6.4 km/h 14.5 km/h 63 % 0 mm 487 W/m2
09:56 17.1 °C 9.8 °C 1017.8 hPa South 8 km/h 17.7 km/h 62 % 0 mm 501 W/m2
10:01 17.3 °C 9.9 °C 1017.8 hPa South 9.7 km/h 19.3 km/h 62 % 0 mm 519 W/m2
10:06 17.3 °C 9.9 °C 1017.8 hPa South 11.3 km/h 24.1 km/h 62 % 0 mm 531 W/m2
10:11 17.4 °C 10.1 °C 1017.5 hPa SSW 12.9 km/h 24.1 km/h 62 % 0 mm 538 W/m2
10:16 17.4 °C 10.1 °C 1017.5 hPa SSW 11.3 km/h 19.3 km/h 62 % 0 mm 550 W/m2
10:21 17.7 °C 10.3 °C 1017.5 hPa SSW 11.3 km/h 19.3 km/h 62 % 0 mm 564 W/m2
10:26 17.9 °C 10.3 °C 1017.5 hPa SSW 11.3 km/h 22.5 km/h 61 % 0 mm 577 W/m2
10:31 18.1 °C 10.4 °C 1017.5 hPa SW 12.9 km/h 22.5 km/h 61 % 0 mm 585 W/m2
10:36 18.3 °C 10.4 °C 1017.5 hPa SSW 11.3 km/h 19.3 km/h 60 % 0 mm 594 W/m2
10:46 18.5 °C 10.3 °C 1017.2 hPa South 11.3 km/h 22.5 km/h 59 % 0 mm 606 W/m2
10:51 18.7 °C 10.5 °C 1017.2 hPa SSE 11.3 km/h 22.5 km/h 59 % 0 mm 612 W/m2
10:56 18.8 °C 10.3 °C 1017.2 hPa SSE 11.3 km/h 22.5 km/h 58 % 0 mm 621 W/m2
11:01 18.9 °C 10.2 °C 1017.2 hPa SSE 12.9 km/h 22.5 km/h 57 % 0 mm 626 W/m2
11:06 18.9 °C 10.2 °C 1017.2 hPa SSE 12.9 km/h 22.5 km/h 57 % 0 mm 635 W/m2
11:11 19.1 °C 10.7 °C 1017.2 hPa SSE 12.9 km/h 22.5 km/h 58 % 0 mm 647 W/m2
11:16 19.3 °C 10.6 °C 1016.8 hPa SSE 11.3 km/h 19.3 km/h 57 % 0 mm 654 W/m2
11:21 19.6 °C 10.8 °C 1016.8 hPa SSE 11.3 km/h 20.9 km/h 57 % 0 mm 666 W/m2
11:26 19.9 °C 11.1 °C 1017.2 hPa South 9.7 km/h 20.9 km/h 57 % 0 mm 673 W/m2
11:31 20.1 °C 11.1 °C 1016.8 hPa SSW 12.9 km/h 25.7 km/h 56 % 0 mm 679 W/m2
11:36 20.2 °C 10.9 °C 1016.8 hPa SSW 14.5 km/h 25.7 km/h 55 % 0 mm 677 W/m2
11:41 20.3 °C 11.2 °C 1016.8 hPa SSW 11.3 km/h 24.1 km/h 56 % 0 mm 694 W/m2
11:42 20.4 °C 11.3 °C 1016.8 hPa SSW 11.3 km/h 24.1 km/h 56 % 0 mm 696 W/m2
11:47 20.7 °C 11.1 °C 1016.5 hPa SW 11.3 km/h 22.5 km/h 54 % 0 mm 703 W/m2
11:52 21.1 °C 11.7 °C 1016.5 hPa WSW 12.9 km/h 22.5 km/h 55 % 0 mm 707 W/m2
12:02 20.8 °C 11.2 °C 1016.5 hPa SSW 17.7 km/h 25.7 km/h 54 % 0 mm 719 W/m2
12:07 20.9 °C 11.5 °C 1016.5 hPa SSW 16.1 km/h 25.7 km/h 55 % 0 mm 722 W/m2
12:12 20.9 °C 11.2 °C 1016.1 hPa SSW 16.1 km/h 29 km/h 54 % 0 mm 731 W/m2
12:17 21.2 °C 11.5 °C 1016.1 hPa SW 17.7 km/h 32.2 km/h 54 % 0 mm 733 W/m2
12:22 21.3 °C 11.3 °C 1016.1 hPa SW 17.7 km/h 32.2 km/h 53 % 0 mm 738 W/m2
12:27 21.4 °C 11.4 °C 1016.1 hPa SW 16.1 km/h 30.6 km/h 53 % 0 mm 742 W/m2
12:32 21.4 °C 11.4 °C 1016.1 hPa SSW 17.7 km/h 37 km/h 53 % 0 mm 751 W/m2
12:42 21.4 °C 11.1 °C 1016.1 hPa SSW 22.5 km/h 35.4 km/h 52 % 0 mm 756 W/m2
12:47 21.4 °C 11.1 °C 1016.1 hPa SW 20.9 km/h 32.2 km/h 52 % 0 mm 761 W/m2
12:48 21.4 °C 11.1 °C 1015.8 hPa SW 20.9 km/h 32.2 km/h 52 % 0 mm 761 W/m2
12:53 21.6 °C 10.4 °C 1015.8 hPa SW 22.5 km/h 38.6 km/h 49 % 0 mm 738 W/m2
12:58 21.6 °C 9.8 °C 1016.1 hPa SW 25.7 km/h 41.8 km/h 47 % 0 mm 722 W/m2
13:03 21.6 °C 9.8 °C 1015.8 hPa SW 25.7 km/h 41.8 km/h 47 % 0 mm 747 W/m2
13:08 21.6 °C 9.8 °C 1015.8 hPa SW 25.7 km/h 40.2 km/h 47 % 0 mm 737 W/m2
13:13 21.6 °C 10.1 °C 1015.8 hPa SW 22.5 km/h 38.6 km/h 48 % 0 mm 701 W/m2
13:18 21.7 °C 10.5 °C 1015.8 hPa SW 20.9 km/h 38.6 km/h 49 % 0 mm 680 W/m2
13:23 21.8 °C 10.6 °C 1015.8 hPa SW 17.7 km/h 33.8 km/h 49 % 0 mm 751 W/m2
13:28 22 °C 10.8 °C 1015.8 hPa SW 16.1 km/h 29 km/h 49 % 0 mm 742 W/m2
13:33 22.2 °C 10 °C 1015.8 hPa SW 17.7 km/h 37 km/h 46 % 0 mm 742 W/m2
13:38 22.1 °C 10.3 °C 1015.5 hPa SW 19.3 km/h 37 km/h 47 % 0 mm 671 W/m2
13:43 22.2 °C 10.3 °C 1015.5 hPa SW 19.3 km/h 32.2 km/h 47 % 0 mm 729 W/m2
13:48 22.2 °C 9.7 °C 1015.5 hPa SW 20.9 km/h 33.8 km/h 45 % 0 mm 733 W/m2
13:53 22.2 °C 9.7 °C 1015.5 hPa SW 19.3 km/h 33.8 km/h 45 % 0 mm 735 W/m2
13:58 22.4 °C 9.2 °C 1015.5 hPa SW 17.7 km/h 29 km/h 43 % 0 mm 737 W/m2
14:03 22.5 °C 9.6 °C 1015.5 hPa WSW 17.7 km/h 29 km/h 44 % 0 mm 728 W/m2
14:08 22.5 °C 9.3 °C 1015.5 hPa SW 17.7 km/h 30.6 km/h 43 % 0 mm 649 W/m2
14:13 22.6 °C 9.7 °C 1015.5 hPa SW 17.7 km/h 30.6 km/h 44 % 0 mm 633 W/m2
14:18 22.6 °C 9.4 °C 1015.5 hPa WSW 19.3 km/h 32.2 km/h 43 % 0 mm 737 W/m2
14:26 22.4 °C 9.2 °C 1015.5 hPa WSW 22.5 km/h 41.8 km/h 43 % 0 mm 740 W/m2
14:31 22.3 °C 9.8 °C 1015.5 hPa WSW 20.9 km/h 37 km/h 45 % 0 mm 649 W/m2
14:36 22.2 °C 10 °C 1015.5 hPa SW 20.9 km/h 38.6 km/h 46 % 0 mm 708 W/m2
14:41 22.2 °C 10.3 °C 1015.5 hPa WSW 19.3 km/h 38.6 km/h 47 % 0 mm 668 W/m2
14:46 22.3 °C 10.4 °C 1015.1 hPa WSW 17.7 km/h 33.8 km/h 47 % 0 mm 621 W/m2
14:51 22.2 °C 10.3 °C 1015.1 hPa SW 17.7 km/h 33.8 km/h 47 % 0 mm 694 W/m2
14:56 22.3 °C 10.1 °C 1015.1 hPa SW 19.3 km/h 33.8 km/h 46 % 0 mm 677 W/m2
15:01 22.3 °C 10.8 °C 1015.1 hPa SW 17.7 km/h 32.2 km/h 48 % 0 mm 680 W/m2
15:06 22.3 °C 10.8 °C 1015.1 hPa WSW 14.5 km/h 24.1 km/h 48 % 0 mm 578 W/m2
15:11 22.3 °C 10.8 °C 1015.1 hPa WSW 17.7 km/h 33.8 km/h 48 % 0 mm 650 W/m2
15:16 22.3 °C 10.4 °C 1015.1 hPa West 20.9 km/h 35.4 km/h 47 % 0 mm 628 W/m2
15:21 22.2 °C 10.3 °C 1015.1 hPa West 20.9 km/h 35.4 km/h 47 % 0 mm 452 W/m2
15:26 22 °C 10.5 °C 1014.8 hPa WSW 19.3 km/h 33.8 km/h 48 % 0 mm 548 W/m2
15:36 22 °C 10.5 °C 1014.8 hPa WSW 20.9 km/h 35.4 km/h 48 % 0 mm 640 W/m2
15:41 22.1 °C 10.9 °C 1014.8 hPa West 17.7 km/h 33.8 km/h 49 % 0 mm 636 W/m2
15:46 22.2 °C 11.3 °C 1014.8 hPa West 16.1 km/h 30.6 km/h 50 % 0 mm 619 W/m2
15:51 22.3 °C 10.8 °C 1014.8 hPa West 17.7 km/h 32.2 km/h 48 % 0 mm 380 W/m2
15:56 22.1 °C 10.6 °C 1014.8 hPa West 19.3 km/h 32.2 km/h 48 % 0 mm 193 W/m2
16:01 21.8 °C 11.2 °C 1014.8 hPa West 20.9 km/h 33.8 km/h 51 % 0 mm 338 W/m2
16:06 21.6 °C 11.3 °C 1014.8 hPa West 20.9 km/h 33.8 km/h 52 % 0 mm 346 W/m2
16:11 21.4 °C 11.4 °C 1014.8 hPa West 19.3 km/h 32.2 km/h 53 % 0 mm 373 W/m2
16:16 21.2 °C 11.2 °C 1014.8 hPa West 20.9 km/h 37 km/h 53 % 0 mm 276 W/m2
16:21 20.9 °C 11.8 °C 1014.8 hPa West 17.7 km/h 37 km/h 56 % 0 mm 227 W/m2
16:26 20.7 °C 11.9 °C 1014.8 hPa WNW 17.7 km/h 32.2 km/h 57 % 0 mm 564 W/m2
16:31 20.6 °C 12.3 °C 1014.8 hPa WNW 20.9 km/h 32.2 km/h 59 % 0 mm 512 W/m2
16:32 20.6 °C 12.3 °C 1014.8 hPa WNW 20.9 km/h 33.8 km/h 59 % 0 mm 536 W/m2
16:37 20.4 °C 12.1 °C 1014.8 hPa WNW 19.3 km/h 33.8 km/h 59 % 0 mm 422 W/m2
16:42 20.3 °C 11.8 °C 1015.1 hPa WNW 17.7 km/h 33.8 km/h 58 % 0 mm 371 W/m2
16:47 20.1 °C 12.1 °C 1015.1 hPa WNW 17.7 km/h 30.6 km/h 60 % 0 mm 462 W/m2
16:52 19.8 °C 11.6 °C 1015.1 hPa WNW 19.3 km/h 35.4 km/h 59 % 0 mm 429 W/m2
16:57 19.5 °C 11.5 °C 1015.1 hPa WNW 20.9 km/h 35.4 km/h 60 % 0 mm 445 W/m2
17:02 19.2 °C 11.5 °C 1015.5 hPa WNW 20.9 km/h 35.4 km/h 61 % 0 mm 432 W/m2
17:07 18.8 °C 11.4 °C 1015.5 hPa WNW 20.9 km/h 35.4 km/h 62 % 0 mm 338 W/m2
17:12 18.3 °C 11.1 °C 1015.5 hPa WNW 22.5 km/h 35.4 km/h 63 % 0 mm 343 W/m2
17:17 17.6 °C 10.7 °C 1015.8 hPa WNW 24.1 km/h 40.2 km/h 64 % 0 mm 295 W/m2
17:22 16.9 °C 10.5 °C 1015.8 hPa West 24.1 km/h 40.2 km/h 66 % 0 mm 274 W/m2
17:27 16.2 °C 10.1 °C 1015.8 hPa WNW 25.7 km/h 45.1 km/h 67 % 0 mm 281 W/m2
17:32 15.7 °C 9.8 °C 1015.8 hPa WNW 27.4 km/h 45.1 km/h 68 % 0 mm 216 W/m2
17:37 15.2 °C 9.6 °C 1015.8 hPa West 27.4 km/h 46.7 km/h 69 % 0 mm 244 W/m2
17:42 14.9 °C 9.5 °C 1015.8 hPa WNW 25.7 km/h 46.7 km/h 70 % 0 mm 162 W/m2
17:47 14.6 °C 9.4 °C 1016.1 hPa WNW 25.7 km/h 46.7 km/h 71 % 0 mm 158 W/m2
17:52 14.3 °C 9.3 °C 1016.1 hPa WNW 30.6 km/h 46.7 km/h 72 % 0 mm 193 W/m2
17:57 14.1 °C 9.1 °C 1015.8 hPa West 30.6 km/h 48.3 km/h 72 % 0 mm 209 W/m2
18:02 13.9 °C 9.3 °C 1016.1 hPa West 29 km/h 51.5 km/h 74 % 0 mm 155 W/m2
18:07 13.8 °C 9.2 °C 1016.1 hPa West 29 km/h 51.5 km/h 74 % 0 mm 197 W/m2
18:12 13.7 °C 9.2 °C 1016.1 hPa West 29 km/h 45.1 km/h 74 % 0 mm 151 W/m2
18:17 13.7 °C 9.2 °C 1016.1 hPa West 27.4 km/h 43.5 km/h 74 % 0 mm 137 W/m2
18:22 13.6 °C 8.8 °C 1016.1 hPa West 27.4 km/h 43.5 km/h 73 % 0 mm 125 W/m2
18:27 13.4 °C 8.4 °C 1016.1 hPa West 29 km/h 41.8 km/h 72 % 0 mm 109 W/m2
18:32 13.3 °C 8.3 °C 1016.5 hPa West 29 km/h 41.8 km/h 72 % 0 mm 97 W/m2
18:37 13.3 °C 8.3 °C 1016.5 hPa West 25.7 km/h 41.8 km/h 72 % 0 mm 86 W/m2
18:42 13.3 °C 8.3 °C 1016.5 hPa West 22.5 km/h 45.1 km/h 72 % 0 mm 79 W/m2
18:47 13.2 °C 7.8 °C 1016.5 hPa WNW 25.7 km/h 45.1 km/h 70 % 0 mm 65 W/m2
18:52 13.1 °C 7.7 °C 1016.5 hPa WNW 27.4 km/h 45.1 km/h 70 % 0 mm 62 W/m2
18:57 13.1 °C 7.6 °C 1016.5 hPa WNW 27.4 km/h 46.7 km/h 69 % 0 mm 54 W/m2
19:02 13 °C 7.4 °C 1016.5 hPa WNW 25.7 km/h 46.7 km/h 69 % 0 mm 53 W/m2
19:07 12.8 °C 7.1 °C 1016.5 hPa WNW 25.7 km/h 45.1 km/h 68 % 0 mm 46 W/m2
19:12 12.7 °C 7.2 °C 1016.8 hPa WNW 27.4 km/h 45.1 km/h 69 % 0 mm 40 W/m2
19:17 12.6 °C 7.1 °C 1016.5 hPa WNW 29 km/h 43.5 km/h 69 % 0 mm 35 W/m2
19:22 12.5 °C 6.9 °C 1016.8 hPa WNW 27.4 km/h 43.5 km/h 69 % 0 mm 30 W/m2
19:27 12.4 °C 7.1 °C 1016.8 hPa WNW 25.7 km/h 43.5 km/h 70 % 0 mm 33 W/m2
19:32 12.3 °C 7.2 °C 1017.2 hPa WNW 22.5 km/h 43.5 km/h 71 % 0 mm 39 W/m2
19:37 12.2 °C 7.1 °C 1017.2 hPa WNW 20.9 km/h 37 km/h 71 % 0 mm 25 W/m2
19:43 12.1 °C 7.2 °C 1017.2 hPa WNW 20.9 km/h 33.8 km/h 72 % 0 mm 18 W/m2
19:48 12 °C 7.1 °C 1017.5 hPa WNW 22.5 km/h 33.8 km/h 72 % 0 mm 16 W/m2
19:53 11.8 °C 6.9 °C 1017.5 hPa WNW 24.1 km/h 35.4 km/h 72 % 0 mm 12 W/m2
19:58 11.7 °C 7 °C 1017.5 hPa WNW 24.1 km/h 37 km/h 73 % 0 mm 11 W/m2
20:03 11.6 °C 6.9 °C 1017.5 hPa WNW 25.7 km/h 43.5 km/h 73 % 0 mm 7 W/m2
20:08 11.6 °C 7.1 °C 1017.5 hPa WNW 27.4 km/h 43.5 km/h 74 % 0 mm 5 W/m2
20:13 11.4 °C 6.9 °C 1017.5 hPa WNW 25.7 km/h 41.8 km/h 74 % 0 mm 0 W/m2
20:18 11.4 °C 6.9 °C 1017.5 hPa West 24.1 km/h 41.8 km/h 74 % 0 mm 0 W/m2
20:23 11.3 °C 6.8 °C 1017.5 hPa West 22.5 km/h 38.6 km/h 74 % 0 mm 0 W/m2
20:28 11.3 °C 7 °C 1017.5 hPa WNW 22.5 km/h 37 km/h 75 % 0 mm 0 W/m2
20:34 11.3 °C 7 °C 1017.8 hPa WNW 24.1 km/h 40.2 km/h 75 % 0 mm 0 W/m2
20:39 11.3 °C 7 °C 1017.8 hPa WNW 22.5 km/h 40.2 km/h 75 % 0 mm 0 W/m2
20:44 11.3 °C 7 °C 1017.8 hPa WNW 19.3 km/h 38.6 km/h 75 % 0 mm 0 W/m2
20:49 11.3 °C 7 °C 1017.8 hPa WNW 17.7 km/h 30.6 km/h 75 % 0 mm 0 W/m2
20:54 11.3 °C 7 °C 1017.8 hPa WNW 16.1 km/h 30.6 km/h 75 % 0 mm 0 W/m2
20:59 11.3 °C 7 °C 1017.8 hPa WNW 14.5 km/h 24.1 km/h 75 % 0 mm 0 W/m2
21:04 11.4 °C 7.1 °C 1017.8 hPa WNW 16.1 km/h 25.7 km/h 75 % 0 mm 0 W/m2
21:09 11.4 °C 7.1 °C 1017.8 hPa WNW 14.5 km/h 25.7 km/h 75 % 0 mm 0 W/m2
21:14 11.5 °C 7.2 °C 1018.2 hPa WNW 12.9 km/h 24.1 km/h 75 % 0 mm 0 W/m2
21:19 11.5 °C 7.2 °C 1017.8 hPa WNW 14.5 km/h 24.1 km/h 75 % 0 mm 0 W/m2
21:24 11.4 °C 7.1 °C 1017.8 hPa WNW 14.5 km/h 29 km/h 75 % 0 mm 0 W/m2
21:29 11.4 °C 7.1 °C 1018.2 hPa WNW 12.9 km/h 29 km/h 75 % 0 mm 0 W/m2
21:34 11.4 °C 7.1 °C 1018.2 hPa WNW 11.3 km/h 19.3 km/h 75 % 0 mm 0 W/m2
21:39 11.3 °C 7 °C 1018.2 hPa West 12.9 km/h 25.7 km/h 75 % 0 mm 0 W/m2
21:44 11.3 °C 7 °C 1018.2 hPa West 14.5 km/h 25.7 km/h 75 % 0 mm 0 W/m2
21:49 11.3 °C 7.2 °C 1018.2 hPa West 14.5 km/h 32.2 km/h 76 % 0 mm 0 W/m2
21:54 11.2 °C 7.1 °C 1018.2 hPa West 14.5 km/h 32.2 km/h 76 % 0 mm 0 W/m2
21:55 11.2 °C 7.1 °C 1018.2 hPa West 14.5 km/h 32.2 km/h 76 % 0 mm 0 W/m2
22:00 11.2 °C 7.1 °C 1018.2 hPa West 17.7 km/h 32.2 km/h 76 % 0 mm 0 W/m2
22:05 11.3 °C 7.2 °C 1018.2 hPa WNW 19.3 km/h 32.2 km/h 76 % 0 mm 0 W/m2
22:10 11.3 °C 7.2 °C 1018.2 hPa WNW 20.9 km/h 32.2 km/h 76 % 0 mm 0 W/m2
22:15 11.3 °C 7.2 °C 1018.2 hPa WNW 20.9 km/h 33.8 km/h 76 % 0 mm 0 W/m2
22:20 11.3 °C 7.4 °C 1018.5 hPa WNW 19.3 km/h 33.8 km/h 77 % 0 mm 0 W/m2
22:25 11.3 °C 7.4 °C 1018.5 hPa WNW 16.1 km/h 32.2 km/h 77 % 0 mm 0 W/m2
22:30 11.3 °C 7.4 °C 1018.5 hPa WNW 16.1 km/h 32.2 km/h 77 % 0 mm 0 W/m2
22:35 11.3 °C 7.4 °C 1018.5 hPa WNW 17.7 km/h 35.4 km/h 77 % 0 mm 0 W/m2
22:40 11.3 °C 7.6 °C 1018.5 hPa WNW 17.7 km/h 35.4 km/h 78 % 0 mm 0 W/m2
22:45 11.2 °C 7.5 °C 1018.5 hPa WNW 14.5 km/h 30.6 km/h 78 % 0 mm 0 W/m2
22:50 11.2 °C 7.7 °C 1018.5 hPa WNW 14.5 km/h 37 km/h 79 % 0 mm 0 W/m2
22:55 11.1 °C 7.6 °C 1018.8 hPa WNW 16.1 km/h 37 km/h 79 % 0 mm 0 W/m2
23:00 11.1 °C 7.6 °C 1018.8 hPa WNW 19.3 km/h 45.1 km/h 79 % 0 mm 0 W/m2
23:05 10.9 °C 7.2 °C 1018.8 hPa WNW 24.1 km/h 45.1 km/h 78 % 0 mm 0 W/m2
23:10 10.7 °C 6.8 °C 1018.8 hPa WNW 24.1 km/h 45.1 km/h 77 % 0 mm 0 W/m2
23:15 10.5 °C 6.8 °C 1018.8 hPa WNW 20.9 km/h 41.8 km/h 78 % 0 mm 0 W/m2
23:17 10.4 °C 6.7 °C 1018.8 hPa WNW 19.3 km/h 41.8 km/h 78 % 0 mm 0 W/m2
23:22 10.2 °C 6.3 °C 1019.2 hPa WNW 17.7 km/h 35.4 km/h 77 % 0 mm 0 W/m2
23:27 10.1 °C 6.2 °C 1019.2 hPa WNW 17.7 km/h 35.4 km/h 77 % 0 mm 0 W/m2
23:32 9.9 °C 6.1 °C 1019.2 hPa WNW 16.1 km/h 32.2 km/h 77 % 0 mm 0 W/m2
23:37 9.7 °C 6.1 °C 1019.2 hPa WNW 16.1 km/h 32.2 km/h 78 % 0 mm 0 W/m2
23:42 9.6 °C 5.9 °C 1019.2 hPa NW 16.1 km/h 33.8 km/h 78 % 0 mm 0 W/m2
23:47 9.4 °C 5.8 °C 1019.2 hPa WNW 16.1 km/h 33.8 km/h 78 % 0 mm 0 W/m2
23:52 9.3 °C 5.8 °C 1019.5 hPa WNW 16.1 km/h 32.2 km/h 79 % 0 mm 0 W/m2
23:57 9.2 °C 5.7 °C 1019.5 hPa WNW 17.7 km/h 32.2 km/h 79 % 0 mm 0 W/m2
Delerius-Weather
Compliments of Weather Underground - 2.25 mb

Data updates at regular intervals.